createdAt,value
2019-02-05T17:09:16.747Z,24.30
2019-02-05T17:10:16.708Z,27.90
2019-02-05T17:11:16.696Z,31.70
2019-02-05T17:12:16.683Z,31.70
2019-02-05T17:13:16.680Z,31.70
2019-02-05T17:14:16.666Z,32.90
2019-02-05T17:15:16.676Z,33.70
2019-02-05T17:16:16.650Z,32.80
2019-02-05T17:17:16.634Z,32.30
2019-02-05T17:18:23.839Z,33.30
2019-02-05T17:19:17.612Z,32.50
2019-02-05T17:20:16.610Z,33.70
2019-02-05T17:21:16.624Z,33.30
2019-02-05T17:22:16.586Z,33.80
2019-02-05T17:23:16.577Z,34.00
2019-02-05T17:24:16.560Z,33.30
2019-02-05T17:25:16.554Z,32.90
2019-02-05T17:26:16.547Z,33.90
2019-02-05T17:27:16.554Z,32.70
2019-02-05T17:28:16.532Z,36.10
2019-02-05T17:29:16.509Z,34.60
2019-02-05T17:30:16.499Z,33.10
2019-02-05T17:31:16.490Z,34.30
2019-02-05T17:32:16.483Z,33.30
2019-02-05T17:33:16.496Z,34.70
2019-02-05T17:34:16.458Z,33.70
2019-02-05T17:35:16.452Z,33.40
2019-02-05T17:36:16.445Z,34.30
2019-02-05T17:37:16.458Z,33.80
2019-02-05T17:38:16.425Z,33.50
2019-02-05T17:39:16.525Z,35.40
2019-02-05T17:40:16.395Z,35.20
2019-02-05T17:41:16.381Z,33.60
2019-02-05T17:42:16.378Z,33.80
2019-02-05T17:43:16.379Z,34.00
2019-02-05T17:44:16.361Z,34.80
2019-02-05T17:45:16.355Z,34.80
2019-02-05T17:46:16.357Z,34.50
2019-02-05T17:47:16.336Z,34.10
2019-02-05T17:48:16.330Z,34.00
2019-02-05T17:49:16.308Z,33.50
2019-02-05T17:50:16.292Z,35.00
2019-02-05T17:51:16.304Z,34.60
2019-02-05T17:52:16.272Z,35.00
2019-02-05T17:53:16.256Z,36.80
2019-02-05T17:54:16.244Z,35.00
2019-02-05T17:55:16.231Z,36.20
2019-02-05T17:56:16.225Z,37.70
2019-02-05T17:57:16.232Z,38.70
2019-02-05T17:58:16.208Z,36.90
2019-02-05T17:59:16.212Z,34.90
2019-02-05T18:00:16.183Z,34.60
2019-02-05T18:01:16.183Z,33.90
2019-02-05T18:02:16.163Z,34.30
2019-02-05T18:03:16.173Z,35.10
2019-02-05T18:04:16.155Z,34.50
2019-02-05T18:05:16.135Z,35.10
2019-02-05T18:06:16.122Z,35.40
2019-02-05T18:07:16.107Z,34.20
2019-02-05T18:08:16.107Z,36.10
2019-02-05T18:09:16.208Z,34.30
2019-02-05T18:10:16.088Z,36.10
2019-02-05T18:11:16.194Z,34.50
2019-02-05T18:12:16.074Z,35.90
2019-02-05T18:13:16.054Z,36.90
2019-02-05T18:14:16.049Z,34.80
2019-02-05T18:15:16.053Z,34.30
2019-02-05T18:16:16.024Z,35.10
2019-02-05T18:17:16.018Z,36.60
2019-02-05T18:18:16.021Z,36.00
2019-02-05T18:19:15.993Z,36.20
2019-02-05T18:20:15.979Z,35.90
2019-02-05T18:21:15.992Z,35.80
2019-02-05T18:22:15.967Z,34.40
2019-02-05T18:23:15.960Z,34.80
2019-02-05T18:24:15.947Z,36.30
2019-02-05T18:25:15.931Z,37.30
2019-02-05T18:26:15.919Z,35.60
2019-02-05T18:27:15.931Z,35.70
2019-02-05T18:28:15.900Z,35.60
2019-02-05T18:29:15.884Z,34.90
2019-02-05T18:30:15.877Z,35.20
2019-02-05T18:31:15.865Z,34.60
2019-02-05T18:32:15.858Z,35.10
2019-02-05T18:33:15.858Z,37.00
2019-02-05T18:34:15.852Z,35.40
2019-02-05T18:35:15.829Z,35.60
2019-02-05T18:36:15.830Z,37.70
2019-02-05T18:37:15.802Z,36.10
2019-02-05T18:38:15.797Z,35.80
2019-02-05T18:39:15.887Z,36.20
2019-02-05T18:40:15.771Z,35.80
2019-02-05T18:41:15.773Z,35.30
2019-02-05T18:42:15.769Z,36.60
2019-02-05T18:43:15.746Z,35.80
2019-02-05T18:44:15.734Z,36.00
2019-02-05T18:45:15.763Z,36.20
2019-02-05T18:46:15.715Z,36.10
2019-02-05T18:47:15.703Z,35.90
2019-02-05T18:48:15.695Z,36.80
2019-02-05T18:49:15.678Z,35.20
2019-02-05T18:50:15.691Z,37.50
2019-02-05T18:51:15.674Z,36.60
2019-02-05T18:52:15.646Z,36.50
2019-02-05T18:53:15.637Z,35.60
2019-02-05T18:54:15.639Z,36.40
2019-02-05T18:55:15.617Z,36.10
2019-02-05T18:56:15.616Z,34.50
2019-02-05T18:57:15.607Z,36.10
2019-02-05T18:58:15.582Z,34.20
2019-02-05T18:59:15.588Z,35.30
2019-02-05T19:00:15.563Z,34.90
2019-02-05T19:01:15.556Z,36.30
2019-02-05T19:02:15.549Z,35.20
2019-02-05T19:03:16.350Z,35.90
2019-02-05T19:04:15.524Z,35.40
2019-02-05T19:05:15.511Z,36.30
2019-02-05T19:06:15.503Z,37.10
2019-02-05T19:07:15.494Z,38.40
2019-02-05T19:08:16.544Z,34.60
2019-02-05T19:09:15.498Z,35.30
2019-02-05T19:10:15.462Z,35.90
2019-02-05T19:11:15.452Z,35.90
2019-02-05T19:12:15.443Z,36.60
2019-02-05T19:13:15.430Z,36.60
2019-02-05T19:14:15.417Z,35.20
2019-02-05T19:15:15.440Z,35.20
2019-02-05T19:16:15.402Z,36.70
2019-02-05T19:17:15.388Z,37.10
2019-02-05T19:18:15.377Z,36.60
2019-02-05T19:19:15.524Z,37.60
2019-02-05T19:20:15.355Z,36.70
2019-02-05T19:21:15.369Z,36.40
2019-02-05T19:22:15.334Z,35.80
2019-02-05T19:23:15.327Z,36.30
2019-02-05T19:24:15.356Z,36.70
2019-02-05T19:25:15.362Z,35.60
2019-02-05T19:26:15.288Z,36.70
2019-02-05T19:27:15.304Z,38.70
2019-02-05T19:28:15.349Z,36.70
2019-02-05T19:29:18.881Z,37.10
2019-02-05T19:30:15.253Z,36.50
2019-02-05T19:31:15.250Z,36.80
2019-02-05T19:32:15.230Z,36.40
2019-02-05T19:33:26.415Z,36.30
2019-02-05T19:34:16.226Z,36.70
2019-02-05T19:35:15.204Z,37.40
2019-02-05T19:36:15.198Z,36.50
2019-02-05T19:37:15.176Z,35.80
2019-02-05T19:38:15.169Z,35.60
2019-02-05T19:39:15.199Z,35.90
2019-02-05T19:40:15.147Z,35.80
2019-02-05T19:41:15.183Z,34.30
2019-02-05T19:42:15.137Z,36.50
2019-02-05T19:43:15.119Z,36.10
2019-02-05T19:44:15.106Z,34.60
2019-02-05T19:45:15.150Z,35.90
2019-02-05T19:46:15.136Z,35.90
2019-02-05T19:47:15.201Z,35.80
2019-02-05T19:48:15.127Z,36.20
2019-02-05T19:49:21.806Z,35.90
2019-02-05T19:50:16.058Z,35.10
2019-02-05T19:51:16.264Z,34.30
2019-02-05T19:52:15.024Z,35.30
2019-02-05T19:53:15.009Z,34.10
2019-02-05T19:54:15.014Z,35.10
2019-02-05T19:55:14.995Z,34.00
2019-02-05T19:56:15.126Z,35.30
2019-02-05T19:57:14.979Z,33.30
2019-02-05T19:58:14.958Z,34.50
2019-02-05T19:59:14.947Z,33.60
2019-02-05T20:00:14.939Z,34.30
2019-02-05T20:01:14.932Z,34.00
2019-02-05T20:02:14.941Z,33.90
2019-02-05T20:03:14.906Z,35.70
2019-02-05T20:04:14.896Z,34.70
2019-02-05T20:05:14.886Z,34.00
2019-02-05T20:06:14.889Z,33.90
2019-02-05T20:07:14.871Z,34.70
2019-02-05T20:08:14.873Z,34.60
2019-02-05T20:09:14.851Z,35.30
2019-02-05T20:10:14.838Z,33.00
2019-02-05T20:11:14.845Z,35.10
2019-02-05T20:12:14.819Z,33.10
2019-02-05T20:13:14.803Z,35.20
2019-02-05T20:14:14.814Z,35.60
2019-02-05T20:15:14.783Z,35.90
2019-02-05T20:16:14.778Z,36.60
2019-02-05T20:17:14.761Z,33.40
2019-02-05T20:18:14.757Z,34.00
2019-02-05T20:19:14.746Z,34.70
2019-02-05T20:20:14.752Z,33.90
2019-02-05T20:21:14.764Z,33.40
2019-02-05T20:22:14.719Z,33.20
2019-02-05T20:23:14.697Z,33.30
2019-02-05T20:24:14.694Z,35.30
2019-02-05T20:25:14.681Z,35.10
2019-02-05T20:26:14.685Z,33.80
2019-02-05T20:27:14.719Z,34.90
2019-02-05T20:28:14.646Z,32.90
2019-02-05T20:29:14.639Z,32.30
2019-02-05T20:30:14.639Z,32.80
2019-02-05T20:31:14.624Z,32.00
2019-02-05T20:32:14.636Z,32.50
2019-02-05T20:33:14.598Z,32.50
2019-02-05T20:34:14.591Z,33.90
2019-02-05T20:35:14.582Z,33.60
2019-02-05T20:36:14.569Z,32.60
2019-02-05T20:37:14.553Z,33.30
2019-02-05T20:38:14.571Z,34.50
2019-02-05T20:39:14.533Z,31.50
2019-02-05T20:40:14.528Z,32.70
2019-02-05T20:41:14.524Z,32.00
2019-02-05T20:42:14.508Z,33.00
2019-02-05T20:43:14.500Z,33.10
2019-02-05T20:44:14.501Z,33.10
2019-02-05T20:45:14.472Z,33.10
2019-02-05T20:46:14.468Z,33.80
2019-02-05T20:47:14.452Z,33.50
2019-02-05T20:48:14.452Z,32.10
2019-02-05T20:49:14.433Z,33.10
2019-02-05T20:50:15.269Z,33.20
2019-02-05T20:51:14.484Z,33.00
2019-02-05T20:52:14.410Z,32.90
2019-02-05T20:53:14.539Z,33.80
2019-02-05T20:54:14.391Z,33.80
2019-02-05T20:55:14.434Z,33.10
2019-02-05T20:56:14.378Z,32.40
2019-02-05T20:57:14.349Z,33.90
2019-02-05T20:58:14.346Z,33.60
2019-02-05T20:59:14.331Z,34.00
2019-02-05T21:00:14.337Z,33.60
2019-02-05T21:01:14.314Z,34.00
2019-02-05T21:02:14.727Z,33.60
2019-02-05T21:03:14.290Z,34.40
2019-02-05T21:04:14.277Z,32.30
2019-02-05T21:05:14.274Z,32.50
2019-02-05T21:06:14.264Z,32.40
2019-02-05T21:07:14.368Z,33.10
2019-02-05T21:08:14.248Z,32.90
2019-02-05T21:09:14.851Z,34.00
2019-02-05T21:10:14.216Z,35.90
2019-02-05T21:11:14.203Z,35.70
2019-02-05T21:12:14.192Z,34.90
2019-02-05T21:13:14.181Z,35.90
2019-02-05T21:14:14.190Z,35.80
2019-02-05T21:15:14.169Z,36.90
2019-02-05T21:16:14.152Z,36.00
2019-02-05T21:17:14.152Z,34.70
2019-02-05T21:18:17.223Z,35.70
2019-02-05T21:19:14.233Z,34.60
2019-02-05T21:20:14.142Z,35.80
2019-02-05T21:21:14.100Z,34.60
2019-02-05T21:22:14.095Z,35.30
2019-02-05T21:23:14.085Z,35.80
2019-02-05T21:24:14.072Z,37.10
2019-02-05T21:25:14.059Z,36.00
2019-02-05T21:26:14.075Z,35.70
2019-02-05T21:27:14.040Z,36.00
2019-02-05T21:28:14.036Z,35.20
2019-02-05T21:29:14.018Z,37.00
2019-02-05T21:30:14.018Z,34.90
2019-02-05T21:31:14.003Z,34.70
2019-02-05T21:32:14.027Z,34.60
2019-02-05T21:33:13.982Z,35.00
2019-02-05T21:34:15.985Z,35.70
2019-02-05T21:35:13.956Z,33.30
2019-02-05T21:36:13.950Z,34.40
2019-02-05T21:37:13.960Z,33.30
2019-02-05T21:38:13.957Z,35.30
2019-02-05T21:39:13.930Z,35.90
2019-02-05T21:40:13.910Z,37.30
2019-02-05T21:41:13.893Z,34.10
2019-02-05T21:42:13.898Z,35.30
2019-02-05T21:43:13.877Z,33.80
2019-02-05T21:44:13.957Z,34.90
2019-02-05T21:45:13.858Z,35.00
2019-02-05T21:46:13.851Z,34.80
2019-02-05T21:47:13.842Z,33.70
2019-02-05T21:48:13.836Z,35.10
2019-02-05T21:49:13.816Z,33.90
2019-02-05T21:50:13.825Z,35.90
2019-02-05T21:51:13.797Z,34.00
2019-02-05T21:52:13.787Z,34.40
2019-02-05T21:53:13.781Z,35.20
2019-02-05T21:54:13.765Z,35.10
2019-02-05T21:55:13.762Z,33.60
2019-02-05T21:56:13.823Z,34.60
2019-02-05T21:57:13.739Z,33.20
2019-02-05T21:58:13.720Z,34.40
2019-02-05T21:59:13.790Z,35.80
2019-02-05T22:00:13.728Z,33.40
2019-02-05T22:01:14.465Z,34.60
2019-02-05T22:02:13.703Z,36.00
2019-02-05T22:03:13.712Z,33.40
2019-02-05T22:04:13.664Z,33.90
2019-02-05T22:05:13.662Z,35.10
2019-02-05T22:06:13.675Z,34.10
2019-02-05T22:07:13.645Z,35.50
2019-02-05T22:08:13.672Z,34.10
2019-02-05T22:09:13.644Z,34.60
2019-02-05T22:10:13.596Z,35.00
2019-02-05T22:11:13.588Z,35.50
2019-02-05T22:12:13.574Z,35.20
2019-02-05T22:13:13.567Z,35.40
2019-02-05T22:14:13.577Z,34.90
2019-02-05T22:15:13.550Z,33.80
2019-02-05T22:16:13.539Z,34.70
2019-02-05T22:17:13.568Z,34.50
2019-02-05T22:18:13.516Z,36.30
2019-02-05T22:19:13.507Z,34.90
2019-02-05T22:20:13.514Z,34.90
2019-02-05T22:21:13.483Z,33.50
2019-02-05T22:22:13.479Z,35.30
2019-02-05T22:23:13.466Z,35.20
2019-02-05T22:24:13.450Z,35.20
2019-02-05T22:25:13.453Z,34.30
2019-02-05T22:26:13.448Z,34.00
2019-02-05T22:27:13.415Z,34.70
2019-02-05T22:28:13.414Z,33.60
2019-02-05T22:29:13.414Z,33.90
2019-02-05T22:30:13.393Z,34.60
2019-02-05T22:31:13.714Z,34.00
2019-02-05T22:32:15.358Z,34.20
2019-02-05T22:33:13.360Z,32.40
2019-02-05T22:34:13.347Z,33.00
2019-02-05T22:35:13.338Z,34.70
2019-02-05T22:36:13.334Z,34.70
2019-02-05T22:37:13.318Z,35.70
2019-02-05T22:38:13.338Z,34.20
2019-02-05T22:39:13.308Z,35.50
2019-02-05T22:40:13.289Z,33.90
2019-02-05T22:41:13.282Z,34.90
2019-02-05T22:42:13.269Z,34.90
2019-02-05T22:43:13.257Z,34.10
2019-02-05T22:44:13.264Z,33.30
2019-02-05T22:45:13.289Z,35.00
2019-02-05T22:46:13.224Z,36.20
2019-02-05T22:47:13.229Z,34.70
2019-02-05T22:48:13.200Z,35.00
2019-02-05T22:49:13.190Z,34.00
2019-02-05T22:50:13.760Z,34.00
2019-02-05T22:51:13.167Z,35.10
2019-02-05T22:52:13.157Z,33.50
2019-02-05T22:53:13.153Z,34.20
2019-02-05T22:54:13.141Z,34.60
2019-02-05T22:55:13.128Z,36.80
2019-02-05T22:56:13.138Z,35.00
2019-02-05T22:57:13.108Z,33.90
2019-02-05T22:58:13.095Z,34.20
2019-02-05T22:59:13.091Z,35.50
2019-02-05T23:00:13.080Z,33.80
2019-02-05T23:01:13.063Z,34.70
2019-02-05T23:02:13.073Z,35.90
2019-02-05T23:03:13.056Z,33.90
2019-02-05T23:04:13.035Z,34.40
2019-02-05T23:05:13.034Z,35.10
2019-02-05T23:06:13.019Z,32.80
2019-02-05T23:07:13.009Z,35.40
2019-02-05T23:08:13.726Z,35.20
2019-02-05T23:09:13.109Z,35.30
2019-02-05T23:10:12.974Z,34.10
2019-02-05T23:11:12.963Z,36.00
2019-02-05T23:12:12.948Z,33.50
2019-02-05T23:13:12.942Z,34.80
2019-02-05T23:14:12.950Z,35.00
2019-02-05T23:15:19.964Z,35.00
2019-02-05T23:16:12.989Z,35.70
2019-02-05T23:17:12.898Z,32.70
2019-02-05T23:18:12.886Z,34.50
2019-02-05T23:19:12.876Z,34.00
2019-02-05T23:20:12.877Z,33.20
2019-02-05T23:21:12.857Z,34.60
2019-02-05T23:22:12.844Z,34.90
2019-02-05T23:23:12.834Z,34.10
2019-02-05T23:24:12.828Z,34.20
2019-02-05T23:25:12.810Z,33.40
2019-02-05T23:26:12.818Z,34.20
2019-02-05T23:27:12.793Z,34.30
2019-02-05T23:28:12.780Z,35.00
2019-02-05T23:29:12.773Z,33.80
2019-02-05T23:30:12.762Z,33.70
2019-02-05T23:31:12.751Z,33.60
2019-02-05T23:32:12.755Z,34.40
2019-02-05T23:33:12.731Z,33.60
2019-02-05T23:34:12.723Z,34.00
2019-02-05T23:35:12.709Z,33.60
2019-02-05T23:36:12.703Z,33.00
2019-02-05T23:37:12.686Z,32.90
2019-02-05T23:38:12.697Z,33.70
2019-02-05T23:39:12.664Z,33.90
2019-02-05T23:40:12.661Z,32.60
2019-02-05T23:41:12.651Z,31.80
2019-02-05T23:42:12.637Z,33.40
2019-02-05T23:43:12.625Z,34.00
2019-02-05T23:44:12.632Z,33.00
2019-02-05T23:45:12.603Z,32.40
2019-02-05T23:46:12.597Z,32.30
2019-02-05T23:47:12.594Z,32.40
2019-02-05T23:48:12.571Z,33.00
2019-02-05T23:49:12.565Z,31.90
2019-02-05T23:50:12.570Z,34.50
2019-02-05T23:51:12.545Z,32.60
2019-02-05T23:52:12.539Z,33.70
2019-02-05T23:53:12.520Z,32.40
2019-02-05T23:54:12.507Z,32.40
2019-02-05T23:55:12.500Z,31.70
2019-02-05T23:56:12.511Z,34.30
2019-02-05T23:57:12.478Z,33.90
2019-02-05T23:58:12.471Z,33.00
2019-02-05T23:59:12.458Z,32.70
